createdAt,value
2019-02-14T00:01:15.116Z,35.93
2019-02-14T00:03:45.645Z,34.70
2019-02-14T00:06:16.121Z,41.30
2019-02-14T00:08:46.601Z,38.37
2019-02-14T00:11:17.080Z,42.37
2019-02-14T00:13:47.558Z,38.73
2019-02-14T00:16:18.027Z,32.03
2019-02-14T00:18:48.542Z,39.73
2019-02-14T00:21:19.058Z,33.53
2019-02-14T00:23:49.469Z,35.20
2019-02-14T00:26:19.998Z,31.60
2019-02-14T00:28:50.435Z,39.00
2019-02-14T00:31:20.946Z,28.93
2019-02-14T00:33:51.438Z,36.93
2019-02-14T00:36:21.955Z,38.53
2019-02-14T00:38:52.555Z,41.97
2019-02-14T00:41:22.970Z,40.07
2019-02-14T00:43:53.399Z,42.77
2019-02-14T00:46:23.956Z,38.87
2019-02-14T00:48:54.559Z,39.73
2019-02-14T00:51:25.088Z,36.57
2019-02-14T00:53:55.515Z,33.37
2019-02-14T00:56:26.146Z,34.73
2019-02-14T00:58:56.582Z,38.30
2019-02-14T01:01:27.206Z,31.73
2019-02-14T01:03:57.666Z,33.70
2019-02-14T01:06:28.240Z,31.67
2019-02-14T01:08:58.794Z,38.20
2019-02-14T01:11:29.224Z,31.63
2019-02-14T01:14:00.673Z,26.70
2019-02-14T01:16:31.119Z,33.20
2019-02-14T01:19:01.588Z,31.53
2019-02-14T01:21:32.129Z,34.37
2019-02-14T01:24:02.591Z,26.87
2019-02-14T01:26:33.114Z,28.37
2019-02-14T01:29:03.644Z,31.27
2019-02-14T01:31:34.173Z,31.07
2019-02-14T01:34:04.836Z,30.50
2019-02-14T01:36:35.486Z,24.03
2019-02-14T01:39:06.682Z,28.30
2019-02-14T01:41:37.159Z,30.80
2019-02-14T01:44:07.643Z,33.03
2019-02-14T01:46:38.374Z,32.97
2019-02-14T01:49:08.865Z,33.97
2019-02-14T01:51:39.379Z,34.20
2019-02-14T01:54:09.883Z,32.87
2019-02-14T01:56:40.598Z,36.67
2019-02-14T01:59:11.227Z,34.73
2019-02-14T02:01:41.654Z,30.73
2019-02-14T02:04:12.084Z,32.33
2019-02-14T02:06:42.506Z,26.20
2019-02-14T02:09:12.932Z,25.90
2019-02-14T02:11:43.787Z,28.23
2019-02-14T02:14:14.210Z,29.37
2019-02-14T02:16:44.666Z,27.50
2019-02-14T02:19:15.332Z,29.97
2019-02-14T02:21:45.831Z,33.00
2019-02-14T02:24:16.314Z,29.27
2019-02-14T02:26:46.746Z,27.80
2019-02-14T02:29:17.234Z,30.37
2019-02-14T02:31:47.856Z,27.97
2019-02-14T02:34:18.328Z,27.53
2019-02-14T02:36:48.806Z,25.77
2019-02-14T02:39:19.337Z,28.90
2019-02-14T02:41:49.922Z,29.70
2019-02-14T02:44:20.348Z,30.33
2019-02-14T02:46:50.773Z,29.50
2019-02-14T02:49:21.198Z,25.30
2019-02-14T02:51:51.728Z,25.93
2019-02-14T02:54:22.263Z,30.90
2019-02-14T02:56:52.891Z,28.70
2019-02-14T02:59:23.521Z,27.50
2019-02-14T03:01:53.953Z,27.80
2019-02-14T03:04:25.400Z,30.57
2019-02-14T03:06:55.827Z,33.63
2019-02-14T03:09:26.253Z,25.43
2019-02-14T03:11:56.679Z,26.77
2019-02-14T03:14:28.437Z,25.33
2019-02-14T03:16:58.872Z,24.23
2019-02-14T03:19:29.291Z,31.73
2019-02-14T03:21:59.719Z,30.00
2019-02-14T03:24:31.215Z,36.47
2019-02-14T03:27:01.699Z,37.57
2019-02-14T03:29:32.435Z,33.53
2019-02-14T03:32:02.884Z,38.53
2019-02-14T03:34:33.287Z,30.33
2019-02-14T03:37:03.759Z,29.60
2019-02-14T03:39:34.296Z,31.80
2019-02-14T03:42:04.773Z,27.57
2019-02-14T03:44:35.406Z,30.63
2019-02-14T03:47:05.842Z,29.27
2019-02-14T03:49:36.259Z,32.43
2019-02-14T03:52:06.780Z,32.43
2019-02-14T03:54:37.266Z,30.10
2019-02-14T03:57:07.744Z,28.00
2019-02-14T03:59:38.220Z,28.00
2019-02-14T04:02:08.701Z,28.93
2019-02-14T04:04:39.127Z,29.30
2019-02-14T04:07:09.555Z,29.60
2019-02-14T04:09:39.981Z,35.17
2019-02-14T04:12:10.538Z,35.43
2019-02-14T04:14:40.976Z,40.47
2019-02-14T04:17:11.539Z,46.63
2019-02-14T04:19:41.999Z,37.67
2019-02-14T04:22:12.423Z,44.50
2019-02-14T04:24:42.851Z,44.20
2019-02-14T04:27:13.359Z,46.27
2019-02-14T04:29:43.812Z,44.37
2019-02-14T04:32:15.263Z,40.83
2019-02-14T04:34:45.864Z,40.83
2019-02-14T04:37:16.323Z,40.70
2019-02-14T04:39:46.787Z,51.23
2019-02-14T04:42:17.461Z,51.17
2019-02-14T04:44:47.916Z,47.77
2019-02-14T04:47:18.334Z,51.50
2019-02-14T04:49:48.768Z,50.30
2019-02-14T04:52:19.296Z,51.40
2019-02-14T04:54:49.753Z,41.47
2019-02-14T04:57:20.679Z,45.60
2019-02-14T04:59:51.188Z,43.67
2019-02-14T05:02:21.615Z,40.13
2019-02-14T05:04:52.043Z,45.17
2019-02-14T05:07:22.465Z,46.73
2019-02-14T05:09:52.894Z,45.73
2019-02-14T05:12:26.168Z,47.70
2019-02-14T05:14:56.727Z,39.97
2019-02-14T05:17:27.147Z,46.70
2019-02-14T05:19:57.576Z,43.33
2019-02-14T05:22:28.100Z,46.63
2019-02-14T05:24:58.833Z,45.07
2019-02-14T05:27:29.282Z,40.97
2019-02-14T05:29:59.746Z,43.23
2019-02-14T05:32:30.319Z,40.40
2019-02-14T05:35:00.771Z,35.87
2019-02-14T05:37:31.483Z,43.27
2019-02-14T05:40:01.876Z,45.07
2019-02-14T05:42:32.491Z,38.97
2019-02-14T05:45:02.965Z,41.93
2019-02-14T05:47:33.394Z,49.83
2019-02-14T05:50:03.822Z,39.63
2019-02-14T05:52:34.247Z,40.07
2019-02-14T05:55:04.950Z,41.33
2019-02-14T05:57:35.722Z,51.20
2019-02-14T06:00:06.808Z,37.47
2019-02-14T06:02:37.606Z,46.33
2019-02-14T06:05:08.225Z,35.67
2019-02-14T06:07:38.735Z,38.03
2019-02-14T06:10:09.510Z,39.67
2019-02-14T06:12:40.018Z,43.70
2019-02-14T06:15:10.957Z,40.97
2019-02-14T06:17:41.386Z,37.47
2019-02-14T06:20:12.020Z,39.90
2019-02-14T06:22:42.549Z,38.87
2019-02-14T06:25:13.135Z,48.73
2019-02-14T06:27:43.810Z,39.10
2019-02-14T06:30:14.747Z,45.67
2019-02-14T06:32:46.201Z,58.63
2019-02-14T06:35:16.674Z,51.53
2019-02-14T06:37:47.156Z,64.03
2019-02-14T06:40:17.633Z,59.87
2019-02-14T06:42:48.258Z,70.53
2019-02-14T06:45:18.647Z,76.30
2019-02-14T06:47:49.067Z,70.43
2019-02-14T06:50:19.495Z,82.83
2019-02-14T06:52:50.947Z,77.17
2019-02-14T06:55:21.378Z,78.90
2019-02-14T06:57:52.004Z,84.63
2019-02-14T07:00:22.430Z,76.17
2019-02-14T07:02:52.867Z,53.47
2019-02-14T07:05:23.438Z,61.30
2019-02-14T07:07:53.858Z,45.77
2019-02-14T07:10:24.480Z,43.63
2019-02-14T07:12:55.046Z,58.97
2019-02-14T07:15:25.567Z,68.53
2019-02-14T07:17:56.051Z,66.50
2019-02-14T07:20:26.469Z,77.23
2019-02-14T07:22:57.046Z,66.13
2019-02-14T07:25:27.630Z,57.43
2019-02-14T07:27:58.066Z,65.50
2019-02-14T07:30:28.627Z,61.00
2019-02-14T07:32:59.119Z,71.07
2019-02-14T07:35:29.638Z,69.60
2019-02-14T07:38:00.362Z,62.13
2019-02-14T07:40:30.844Z,74.93
2019-02-14T07:43:01.475Z,85.00
2019-02-14T07:45:32.015Z,94.30
2019-02-14T07:48:02.490Z,98.50
2019-02-14T07:50:33.122Z,101.93
2019-02-14T07:53:03.583Z,89.73
2019-02-14T07:55:34.150Z,60.67
2019-02-14T07:58:04.811Z,49.40
2019-02-14T08:00:35.341Z,36.80
2019-02-14T08:03:05.878Z,40.10
2019-02-14T08:05:36.266Z,32.87
2019-02-14T08:08:06.779Z,29.83
2019-02-14T08:10:37.331Z,33.90
2019-02-14T08:13:07.809Z,29.90
2019-02-14T08:15:38.209Z,28.43
2019-02-14T08:18:10.175Z,32.90
2019-02-14T08:20:40.670Z,33.30
2019-02-14T08:23:11.141Z,34.60
2019-02-14T08:25:41.557Z,32.30
2019-02-14T08:28:11.983Z,29.20
2019-02-14T08:30:42.410Z,27.63
2019-02-14T08:33:12.842Z,27.70
2019-02-14T08:35:43.266Z,30.33
2019-02-14T08:38:13.696Z,26.43
2019-02-14T08:40:44.171Z,29.60
2019-02-14T08:43:14.691Z,27.57
2019-02-14T08:45:45.179Z,26.83
2019-02-14T08:48:15.677Z,30.53
2019-02-14T08:50:46.174Z,30.57
2019-02-14T08:53:16.664Z,30.63
2019-02-14T08:55:47.194Z,27.33
2019-02-14T08:58:17.927Z,25.47
2019-02-14T09:00:48.359Z,26.90
2019-02-14T09:03:19.881Z,28.40
2019-02-14T09:05:50.437Z,22.63
2019-02-14T09:08:20.864Z,25.73
2019-02-14T09:10:51.340Z,22.63
2019-02-14T09:13:21.819Z,26.00
2019-02-14T09:15:52.248Z,22.80
2019-02-14T09:18:22.880Z,22.03
2019-02-14T09:20:53.313Z,27.50
2019-02-14T09:23:24.762Z,26.63
2019-02-14T09:25:55.188Z,21.00
2019-02-14T09:28:25.611Z,23.03
2019-02-14T09:30:56.040Z,32.73
2019-02-14T09:33:27.796Z,23.70
2019-02-14T09:35:58.363Z,24.73
2019-02-14T09:38:28.957Z,22.07
2019-02-14T09:40:59.427Z,20.67
2019-02-14T09:43:30.255Z,23.23
2019-02-14T09:46:00.765Z,21.17
2019-02-14T09:48:31.366Z,21.73
2019-02-14T09:51:01.863Z,21.87
2019-02-14T09:53:32.421Z,20.68
2019-02-14T09:56:02.872Z,20.25
2019-02-14T09:58:33.498Z,21.10
2019-02-14T10:01:04.043Z,22.05
2019-02-14T10:03:34.589Z,22.60
2019-02-14T10:06:05.117Z,20.37
2019-02-14T10:08:35.519Z,18.77
2019-02-14T10:11:05.945Z,19.65
2019-02-14T10:13:37.548Z,17.35
2019-02-14T10:16:08.023Z,20.37
2019-02-14T10:18:38.659Z,17.57
2019-02-14T10:21:08.996Z,16.12
2019-02-14T10:23:39.509Z,14.28
2019-02-14T10:26:10.047Z,12.55
2019-02-14T10:28:40.470Z,19.10
2019-02-14T10:31:10.895Z,16.93
2019-02-14T10:33:41.436Z,17.20
2019-02-14T10:36:11.864Z,13.55
2019-02-14T10:38:42.483Z,14.95
2019-02-14T10:41:13.102Z,15.10
2019-02-14T10:43:48.798Z,15.80
2019-02-14T10:46:15.711Z,16.82
2019-02-14T10:48:46.442Z,14.75
2019-02-14T10:51:17.002Z,16.12
2019-02-14T10:53:47.811Z,18.85
2019-02-14T10:56:18.242Z,15.48
2019-02-14T10:58:48.867Z,14.85
2019-02-14T11:01:19.320Z,16.07
2019-02-14T11:03:49.926Z,16.32
2019-02-14T11:06:20.360Z,16.48
2019-02-14T11:08:50.777Z,14.93
2019-02-14T11:11:21.206Z,14.83
2019-02-14T11:13:52.656Z,15.58
2019-02-14T11:16:23.137Z,15.30
2019-02-14T11:18:53.639Z,15.25
2019-02-14T11:21:24.151Z,14.93
2019-02-14T11:23:54.742Z,17.10
2019-02-14T11:26:25.210Z,15.88
2019-02-14T11:28:56.978Z,14.58
2019-02-14T11:31:27.395Z,14.87
2019-02-14T11:33:58.027Z,16.30
2019-02-14T11:36:28.490Z,15.20
2019-02-14T11:38:58.974Z,16.27
2019-02-14T11:41:29.448Z,12.33
2019-02-14T11:44:00.240Z,17.23
2019-02-14T11:46:30.973Z,16.32
2019-02-14T11:49:01.573Z,16.42
2019-02-14T11:51:32.070Z,17.00
2019-02-14T11:54:02.733Z,13.50
2019-02-14T11:56:33.200Z,14.95
2019-02-14T11:59:03.824Z,8.50
2019-02-14T12:01:34.255Z,11.50
2019-02-14T12:04:04.746Z,12.30
2019-02-14T12:06:35.309Z,9.55
2019-02-14T12:09:07.558Z,16.35
2019-02-14T12:11:38.007Z,17.07
2019-02-14T12:14:09.459Z,14.75
2019-02-14T12:16:39.884Z,17.02
2019-02-14T12:19:10.361Z,10.70
2019-02-14T12:21:40.783Z,13.00
2019-02-14T12:24:11.275Z,13.62
2019-02-14T12:26:41.696Z,11.38
2019-02-14T12:29:12.126Z,10.15
2019-02-14T12:31:42.554Z,9.33
2019-02-14T12:34:12.977Z,8.13
2019-02-14T12:36:43.443Z,9.10
2019-02-14T12:39:14.004Z,9.13
2019-02-14T12:41:44.512Z,11.88
2019-02-14T12:44:15.103Z,9.23
2019-02-14T12:46:45.523Z,11.35
2019-02-14T12:49:16.357Z,10.70
2019-02-14T12:51:46.816Z,10.68
2019-02-14T12:54:17.315Z,10.82
2019-02-14T12:56:50.814Z,11.35
2019-02-14T12:59:21.450Z,10.95
2019-02-14T13:01:51.871Z,8.63
2019-02-14T13:04:23.320Z,8.18
2019-02-14T13:06:53.851Z,10.25
2019-02-14T13:09:24.408Z,16.07
2019-02-14T13:11:55.013Z,12.55
2019-02-14T13:14:25.441Z,10.15
2019-02-14T13:16:55.868Z,12.98
2019-02-14T13:19:26.294Z,9.85
2019-02-14T13:21:57.028Z,13.15
2019-02-14T13:24:27.497Z,10.43
2019-02-14T13:26:58.055Z,11.20
2019-02-14T13:29:28.514Z,10.25
2019-02-14T13:31:58.940Z,10.03
2019-02-14T13:34:29.370Z,11.97
2019-02-14T13:37:02.102Z,11.53
2019-02-14T13:39:32.689Z,13.72
2019-02-14T13:42:03.397Z,12.18
2019-02-14T13:44:33.916Z,11.10
2019-02-14T13:47:04.369Z,9.90
2019-02-14T13:49:34.795Z,9.03
2019-02-14T13:52:05.329Z,10.35
2019-02-14T13:54:35.720Z,10.55
2019-02-14T13:57:06.492Z,13.08
2019-02-14T13:59:36.915Z,14.03
2019-02-14T14:02:07.446Z,10.65
2019-02-14T14:04:37.859Z,9.13
2019-02-14T14:07:08.363Z,9.38
2019-02-14T14:09:39.074Z,9.13
2019-02-14T14:12:09.554Z,11.40
2019-02-14T14:14:39.980Z,10.32
2019-02-14T14:17:10.423Z,12.07
2019-02-14T14:19:40.919Z,11.78
2019-02-14T14:22:11.473Z,11.88
2019-02-14T14:24:42.002Z,11.38
2019-02-14T14:27:12.460Z,11.60
2019-02-14T14:29:42.958Z,10.60
2019-02-14T14:32:13.696Z,9.63
2019-02-14T14:34:44.214Z,9.10
2019-02-14T14:37:14.658Z,9.15
2019-02-14T14:39:47.714Z,10.48
2019-02-14T14:42:52.382Z,11.78
2019-02-14T14:45:35.799Z,11.50
2019-02-14T14:48:06.226Z,9.18
2019-02-14T14:50:36.655Z,9.38
2019-02-14T14:53:08.132Z,9.05
2019-02-14T14:55:38.793Z,10.03
2019-02-14T14:58:09.272Z,8.50
2019-02-14T15:00:40.000Z,10.68
2019-02-14T15:03:11.456Z,10.03
2019-02-14T15:05:41.980Z,9.78
2019-02-14T15:08:12.515Z,11.25
2019-02-14T15:10:43.022Z,10.53
2019-02-14T15:13:13.466Z,10.63
2019-02-14T15:15:44.098Z,9.48
2019-02-14T15:18:14.729Z,9.03
2019-02-14T15:20:45.223Z,10.55
2019-02-14T15:23:15.738Z,12.33
2019-02-14T15:25:46.215Z,10.20
2019-02-14T15:28:16.721Z,10.20
2019-02-14T15:30:47.173Z,12.70
2019-02-14T15:33:17.598Z,12.93
2019-02-14T15:35:48.027Z,8.30
2019-02-14T15:38:18.481Z,9.53
2019-02-14T15:40:48.879Z,8.03
2019-02-14T15:43:19.307Z,9.15
2019-02-14T15:45:49.774Z,10.23
2019-02-14T15:48:20.293Z,11.80
2019-02-14T15:50:51.473Z,10.82
2019-02-14T15:53:23.887Z,9.73
2019-02-14T15:55:54.315Z,11.60
2019-02-14T15:58:25.109Z,11.40
2019-02-14T16:00:55.699Z,11.95
2019-02-14T16:03:26.481Z,11.18
2019-02-14T16:05:56.938Z,13.83
2019-02-14T16:08:27.389Z,16.48
2019-02-14T16:10:57.782Z,13.48
2019-02-14T16:13:29.201Z,9.33
2019-02-14T16:16:00.590Z,11.73
2019-02-14T16:18:31.500Z,11.22
2019-02-14T16:21:03.530Z,18.17
2019-02-14T16:23:34.339Z,10.88
2019-02-14T16:26:04.867Z,14.03
2019-02-14T16:28:36.136Z,14.70
2019-02-14T16:31:07.461Z,15.43
2019-02-14T16:33:38.947Z,12.85
2019-02-14T16:36:09.539Z,12.85
2019-02-14T16:38:39.967Z,13.55
2019-02-14T16:41:10.288Z,15.63
2019-02-14T16:43:40.682Z,17.55
2019-02-14T16:46:11.221Z,15.93
2019-02-14T16:48:41.670Z,19.30
2019-02-14T16:51:12.098Z,19.87
2019-02-14T16:53:42.630Z,21.23
2019-02-14T16:56:13.360Z,21.10
2019-02-14T16:58:43.912Z,19.67
2019-02-14T17:01:14.318Z,20.77
2019-02-14T17:03:44.999Z,22.43
2019-02-14T17:06:15.403Z,33.67
2019-02-14T17:08:45.807Z,22.13
2019-02-14T17:11:16.486Z,44.83
2019-02-14T17:13:46.968Z,21.27
2019-02-14T17:16:17.391Z,20.20
2019-02-14T17:18:47.818Z,20.93
2019-02-14T17:21:18.315Z,18.83
2019-02-14T17:23:48.951Z,21.63
2019-02-14T17:26:19.421Z,18.77
2019-02-14T17:28:50.040Z,17.93
2019-02-14T17:31:20.470Z,19.07
2019-02-14T17:33:51.927Z,19.57
2019-02-14T17:36:22.430Z,25.10
2019-02-14T17:38:52.802Z,18.30
2019-02-14T17:41:23.229Z,20.53
2019-02-14T17:43:53.740Z,24.40
2019-02-14T17:46:24.198Z,20.87
2019-02-14T17:48:54.736Z,22.03
2019-02-14T17:51:25.215Z,24.83
2019-02-14T17:53:57.223Z,19.27
2019-02-14T17:56:27.751Z,18.87
2019-02-14T17:58:58.272Z,22.93
2019-02-14T18:01:28.762Z,21.10
2019-02-14T18:03:59.400Z,26.20
2019-02-14T18:06:30.142Z,27.53
2019-02-14T18:09:00.840Z,38.33
2019-02-14T18:11:31.259Z,23.93
2019-02-14T18:14:01.724Z,33.50
2019-02-14T18:16:32.144Z,23.20
2019-02-14T18:19:02.784Z,33.27
2019-02-14T18:21:33.412Z,29.33
2019-02-14T18:24:04.142Z,31.93
2019-02-14T18:26:34.482Z,24.50
2019-02-14T18:29:05.367Z,25.23
2019-02-14T18:31:35.906Z,21.27
2019-02-14T18:34:06.361Z,23.43
2019-02-14T18:36:36.788Z,22.27
2019-02-14T18:39:08.751Z,21.13
2019-02-14T18:41:39.294Z,20.33
2019-02-14T18:44:09.819Z,24.83
2019-02-14T18:46:40.283Z,26.10
2019-02-14T18:49:10.816Z,24.13
2019-02-14T18:51:41.400Z,22.50
2019-02-14T18:54:12.859Z,21.83
2019-02-14T18:56:43.558Z,27.40
2019-02-14T18:59:14.023Z,25.33
2019-02-14T19:01:44.747Z,28.33
2019-02-14T19:04:15.379Z,33.30
2019-02-14T19:06:45.807Z,36.30
2019-02-14T19:09:16.434Z,33.93
2019-02-14T19:11:47.171Z,34.83
2019-02-14T19:14:40.336Z,37.23
2019-02-14T19:17:10.728Z,36.03
2019-02-14T19:19:41.186Z,37.23
2019-02-14T19:22:11.614Z,31.33
2019-02-14T19:24:42.045Z,39.07
2019-02-14T19:27:12.464Z,32.10
2019-02-14T19:29:42.907Z,35.40
2019-02-14T19:32:14.594Z,28.63
2019-02-14T19:34:45.211Z,31.50
2019-02-14T19:37:15.821Z,29.77
2019-02-14T19:39:46.403Z,32.57
2019-02-14T19:42:16.883Z,34.27
2019-02-14T19:44:47.371Z,31.17
2019-02-14T19:47:17.929Z,24.37
2019-02-14T19:49:48.407Z,32.20
2019-02-14T19:52:18.895Z,33.47
2019-02-14T19:54:49.317Z,34.60
2019-02-14T19:57:19.741Z,30.27
2019-02-14T19:59:50.244Z,30.67
2019-02-14T20:02:20.739Z,35.27
2019-02-14T20:04:52.296Z,36.40
2019-02-14T20:07:22.881Z,33.83
2019-02-14T20:09:53.307Z,31.77
2019-02-14T20:12:23.797Z,33.27
2019-02-14T20:14:54.310Z,39.57
2019-02-14T20:17:24.822Z,31.97
2019-02-14T20:19:55.425Z,33.20
2019-02-14T20:22:25.851Z,32.50
2019-02-14T20:24:56.962Z,35.07
2019-02-14T20:27:27.429Z,32.63
2019-02-14T20:29:57.923Z,33.30
2019-02-14T20:32:28.450Z,31.17
2019-02-14T20:35:01.658Z,31.10
2019-02-14T20:37:31.351Z,30.70
2019-02-14T20:40:02.110Z,29.10
2019-02-14T20:42:33.088Z,30.63
2019-02-14T20:45:04.068Z,34.40
2019-02-14T20:47:35.345Z,44.40
2019-02-14T20:50:06.528Z,38.60
2019-02-14T20:52:37.460Z,39.37
2019-02-14T20:55:10.121Z,34.53
2019-02-14T20:57:40.553Z,34.63
2019-02-14T21:00:30.625Z,34.63
2019-02-14T21:03:01.382Z,31.30
2019-02-14T21:05:33.213Z,36.53
2019-02-14T21:08:03.875Z,35.27
2019-02-14T21:10:34.688Z,38.97
2019-02-14T21:13:05.314Z,42.30
2019-02-14T21:15:35.872Z,36.70
2019-02-14T21:18:06.672Z,32.37
2019-02-14T21:20:42.575Z,34.80
2019-02-14T21:23:13.646Z,34.20
2019-02-14T21:25:44.220Z,32.00
2019-02-14T21:28:14.695Z,38.43
2019-02-14T21:30:45.288Z,37.87
2019-02-14T21:33:15.749Z,37.43
2019-02-14T21:35:46.399Z,39.50
2019-02-14T21:38:16.969Z,37.07
2019-02-14T21:40:47.539Z,36.83
2019-02-14T21:43:18.203Z,36.23
2019-02-14T21:45:48.727Z,30.53
2019-02-14T21:48:19.903Z,37.10
2019-02-14T21:50:50.554Z,32.57
2019-02-14T21:53:21.109Z,30.13
2019-02-14T21:55:51.621Z,34.10
2019-02-14T21:58:22.244Z,43.17
2019-02-14T22:00:52.781Z,32.90
2019-02-14T22:03:23.484Z,29.13
2019-02-14T22:05:54.188Z,29.23
2019-02-14T22:08:24.776Z,32.50
2019-02-14T22:10:55.204Z,26.60
2019-02-14T22:13:50.559Z,32.47
2019-02-14T22:16:21.287Z,32.30
2019-02-14T22:18:51.763Z,28.60
2019-02-14T22:21:22.189Z,28.43
2019-02-14T22:23:52.819Z,35.63
2019-02-14T22:26:23.136Z,32.33
2019-02-14T22:28:53.674Z,34.80
2019-02-14T22:31:24.093Z,35.70
2019-02-14T22:33:54.635Z,32.23
2019-02-14T22:36:25.055Z,38.07
2019-02-14T22:38:55.466Z,40.17
2019-02-14T22:41:25.895Z,34.53
2019-02-14T22:43:57.378Z,37.20
2019-02-14T22:46:27.786Z,46.57
2019-02-14T22:48:58.242Z,39.50
2019-02-14T22:51:28.803Z,38.80
2019-02-14T22:54:00.180Z,34.87
2019-02-14T22:56:30.608Z,31.43
2019-02-14T22:59:01.035Z,34.17
2019-02-14T23:01:31.465Z,35.90
2019-02-14T23:04:01.888Z,40.77
2019-02-14T23:06:34.671Z,34.93
2019-02-14T23:09:06.534Z,34.37
2019-02-14T23:11:36.967Z,31.00
2019-02-14T23:14:07.487Z,31.30
2019-02-14T23:16:37.916Z,29.50
2019-02-14T23:19:08.392Z,27.63
2019-02-14T23:21:38.884Z,30.50
2019-02-14T23:24:09.400Z,25.60
2019-02-14T23:26:39.825Z,30.30
2019-02-14T23:29:10.252Z,27.50
2019-02-14T23:31:40.678Z,31.20
2019-02-14T23:34:11.113Z,26.60
2019-02-14T23:36:41.535Z,31.17
2019-02-14T23:39:12.337Z,25.40
2019-02-14T23:41:42.799Z,33.50
2019-02-14T23:44:14.251Z,24.00
2019-02-14T23:46:44.675Z,28.60
2019-02-14T23:49:15.130Z,25.37
2019-02-14T23:51:45.679Z,30.47
2019-02-14T23:54:16.164Z,23.77
2019-02-14T23:56:46.588Z,26.83
2019-02-14T23:59:17.188Z,32.90
